TimeCST,TemperatureF,Dew PointF,Humidity,Sea Level PressureIn,VisibilityMPH,Wind Direction,Wind SpeedMPH,Gust SpeedMPH,PrecipitationIn,Events,Conditions,WindDirDegrees,DateUTC
12:00 AM,68,61,71,29.80,12,East,6.9,,,,,90,2013-04-03 06:00:00
12:00 AM,68.0,60.8,78,30.04,-9999.0,East,6.9,-,N/A,,Clear,80,2013-04-03 06:00:00
1:00 AM,68.0,60.8,78,30.00,-9999.0,NNE,3.5,-,N/A,,Clear,30,2013-04-03 07:00:00
2:00 AM,69.8,62.6,78,29.97,-9999.0,East,6.9,-,N/A,,Clear,90,2013-04-03 08:00:00
3:00 AM,70,61,65,29.79,12,ESE,6.9,,,,Clear,110,2013-04-03 09:00:00
3:00 AM,69.8,66.2,88,29.97,-9999.0,ESE,6.9,-,N/A,,Clear,110,2013-04-03 09:00:00
4:00 AM,69.8,62.6,78,29.97,-9999.0,East,9.2,-,N/A,,Clear,100,2013-04-03 10:00:00
5:00 AM,71.6,62.6,73,29.99,-9999.0,ESE,12.7,-,N/A,,Clear,120,2013-04-03 11:00:00
6:00 AM,72,61,59,29.85,12,ESE,11.5,,,,Clear,120,2013-04-03 12:00:00
6:00 AM,71.6,60.8,69,30.01,-9999.0,ESE,11.5,-,N/A,,Clear,120,2013-04-03 12:00:00
7:00 AM,73.4,62.6,69,30.03,-9999.0,SE,9.2,-,N/A,,Clear,130,2013-04-03 13:00:00
8:00 AM,77.0,62.6,61,30.06,-9999.0,ESE,9.2,-,N/A,,Clear,110,2013-04-03 14:00:00
9:00 AM,81,61,40,29.86,12,East,11.5,,,,Clear,100,2013-04-03 15:00:00
9:00 AM,80.6,60.8,51,30.06,-9999.0,East,11.5,-,N/A,,Clear,100,2013-04-03 15:00:00
10:00 AM,84.2,60.8,45,30.05,6.2,SSE,10.4,-,N/A,,Partly Cloudy,160,2013-04-03 16:00:00
11:00 AM,84.2,60.8,45,30.04,6.2,SE,6.9,-,N/A,,Partly Cloudy,140,2013-04-03 17:00:00
12:00 PM,84,61,35,29.81,12,East,5.8,,,,Partly Cloudy,100,2013-04-03 18:00:00
12:00 PM,84.2,60.8,45,30.02,6.2,East,5.8,-,N/A,,Scattered Clouds,100,2013-04-03 18:00:00
12:14 PM,82.4,64.4,54,30.01,6.2,West,8.1,-,N/A,,Scattered Clouds,260,2013-04-03 18:14:00
1:00 PM,84.2,66.2,55,29.98,6.2,West,10.4,-,N/A,,Mostly Cloudy,270,2013-04-03 19:00:00
2:00 PM,78.8,68.0,69,29.95,6.2,WSW,10.4,-,N/A,Rain,Light Rain,240,2013-04-03 20:00:00
3:00 PM,73.4,68.0,83,29.95,6.2,SW,5.8,-,N/A,,Mostly Cloudy,230,2013-04-03 21:00:00
3:35 PM,73.4,69.8,88,29.97,6.2,SSE,5.8,-,N/A,Rain,Light Rain,160,2013-04-03 21:35:00
4:00 PM,73.4,69.8,88,29.97,6.2,South,2.3,-,N/A,Rain,Light Rain,180,2013-04-03 22:00:00
5:00 PM,73.4,69.8,88,29.97,6.2,West,3.5,-,N/A,,Scattered Clouds,260,2013-04-03 23:00:00
6:00 PM,73,68,80,,12,ENE,4.6,,,,,70,2013-04-04 00:00:00
6:00 PM,73.4,68.0,83,29.98,6.2,ENE,4.6,-,N/A,,Scattered Clouds,70,2013-04-04 00:00:00
7:00 PM,71.6,64.4,78,30.00,6.2,ESE,5.8,-,N/A,,Scattered Clouds,120,2013-04-04 01:00:00
8:00 PM,71.6,64.4,78,30.02,6.2,East,6.9,-,N/A,,Scattered Clouds,100,2013-04-04 02:00:00
9:00 PM,72,64,71,29.86,12,East,6.9,,,,Scattered Clouds,100,2013-04-04 03:00:00
9:00 PM,71.6,64.4,78,30.04,6.2,East,6.9,-,N/A,,Scattered Clouds,100,2013-04-04 03:00:00
10:00 PM,69.8,64.4,83,30.05,-9999.0,ESE,3.5,-,N/A,,Clear,110,2013-04-04 04:00:00
11:00 PM,69.8,62.6,78,30.05,-9999.0,ESE,3.5,-,N/A,,Clear,110,2013-04-04 05:00:00